Time;durP1;ratioP1;P1;durP2;ratioP2;P2;SDS_P1;SDS_P2;PMS_P1;PMS_P2;Temp;Humidity;BMP_temperature;BMP_pressure;BME280_temperature;BME280_humidity;BME280_pressure;Samples;Min_cycle;Max_cycle;Signal;HPM_P1;HPM_P2
2023/10/27 00:01:09;;;;;;;30.48;19.38;;;9.60;99.90;;;;;;5036707;28;20052;-67
2023/10/27 00:03:35;;;;;;;33.50;18.75;;;9.70;99.90;;;;;;5054684;28;20076;-67
2023/10/27 00:06:01;;;;;;;28.48;18.92;;;9.60;99.90;;;;;;5036029;28;20486;-67
2023/10/27 00:08:27;;;;;;;27.80;18.00;;;9.80;99.90;;;;;;5036724;28;20501;-67
2023/10/27 00:10:53;;;;;;;34.38;21.02;;;9.70;99.90;;;;;;5035477;28;20051;-67
2023/10/27 00:13:20;;;;;;;31.17;18.83;;;9.70;99.90;;;;;;5037149;28;20053;-67
2023/10/27 00:15:46;;;;;;;33.65;19.42;;;9.80;99.90;;;;;;5037073;28;20045;-67
2023/10/27 00:18:12;;;;;;;36.33;20.65;;;9.70;99.90;;;;;;5035554;28;20045;-67
2023/10/27 00:20:37;;;;;;;34.40;20.95;;;9.70;99.90;;;;;;5054857;28;20124;-67
2023/10/27 00:23:03;;;;;;;31.52;20.52;;;9.60;99.90;;;;;;5036535;28;20120;-67
2023/10/27 00:25:29;;;;;;;32.10;21.52;;;9.60;99.90;;;;;;5036038;28;20059;-67
2023/10/27 00:27:55;;;;;;;32.67;20.48;;;9.70;99.90;;;;;;5035931;28;20107;-67
2023/10/27 00:30:20;;;;;;;31.05;18.90;;;9.70;99.90;;;;;;5036943;28;20041;-67
2023/10/27 00:32:47;;;;;;;30.35;18.45;;;9.70;99.90;;;;;;5035878;28;20051;-67
2023/10/27 00:35:12;;;;;;;30.95;18.75;;;9.60;99.90;;;;;;5019846;28;20148;-67
2023/10/27 00:37:38;;;;;;;29.85;18.15;;;9.60;99.90;;;;;;5045384;28;20125;-67
2023/10/27 00:40:04;;;;;;;30.38;19.58;;;9.60;99.90;;;;;;5015399;28;20095;-68
2023/10/27 00:42:30;;;;;;;29.08;19.13;;;9.60;99.90;;;;;;5034469;28;20402;-67
2023/10/27 00:44:56;;;;;;;34.65;19.73;;;9.60;99.90;;;;;;5016474;28;20034;-67
2023/10/27 00:47:24;;;;;;;29.60;17.75;;;9.50;99.90;;;;;;5016072;28;20072;-67
2023/10/27 00:49:50;;;;;;;33.75;18.98;;;9.50;99.90;;;;;;5049738;28;20494;-68
2023/10/27 00:52:18;;;;;;;31.45;19.10;;;9.50;99.90;;;;;;5015836;28;20368;-67
2023/10/27 00:54:46;;;;;;;31.65;18.27;;;9.50;99.90;;;;;;5033857;28;20045;-67
2023/10/27 00:57:18;;;;;;;30.27;18.85;;;9.50;99.90;;;;;;5047255;28;20049;-68
2023/10/27 00:59:44;;;;;;;31.40;18.70;;;9.50;99.90;;;;;;5035824;28;20052;-67
2023/10/27 01:02:11;;;;;;;30.98;19.38;;;9.40;99.90;;;;;;5035430;28;20068;-68
2023/10/27 01:04:38;;;;;;;40.58;21.83;;;9.40;99.90;;;;;;5036208;28;20056;-67
2023/10/27 01:07:04;;;;;;;43.15;25.13;;;9.40;99.90;;;;;;5034824;28;20041;-67
2023/10/27 01:09:30;;;;;;;38.00;23.27;;;9.40;99.90;;;;;;5035723;28;20056;-67
2023/10/27 01:11:55;;;;;;;36.90;22.88;;;9.30;99.90;;;;;;5035568;28;20119;-67
2023/10/27 01:14:22;;;;;;;34.25;20.85;;;9.40;99.90;;;;;;5035279;28;20541;-67
2023/10/27 01:16:48;;;;;;;29.15;17.05;;;9.20;99.90;;;;;;5036087;28;20052;-67
2023/10/27 01:19:14;;;;;;;25.75;17.92;;;9.30;99.90;;;;;;5035439;28;20078;-67
2023/10/27 01:21:39;;;;;;;29.23;17.92;;;9.20;99.90;;;;;;5035223;28;20037;-67
2023/10/27 01:24:05;;;;;;;27.20;16.65;;;9.20;99.90;;;;;;5034887;28;20510;-67
2023/10/27 01:26:31;;;;;;;26.98;16.60;;;9.10;99.90;;;;;;5051594;28;20051;-67
2023/10/27 01:28:57;;;;;;;27.80;16.92;;;9.20;99.90;;;;;;5032338;28;20041;-67
2023/10/27 01:31:24;;;;;;;25.60;15.50;;;9.10;99.90;;;;;;5033828;28;20069;-67
2023/10/27 01:33:49;;;;;;;26.23;16.45;;;9.10;99.90;;;;;;5049021;28;20501;-67
2023/10/27 01:36:15;;;;;;;29.35;16.70;;;9.00;99.90;;;;;;5014435;28;20046;-67
2023/10/27 01:38:41;;;;;;;25.80;16.35;;;9.10;99.90;;;;;;5015527;28;20129;-68
2023/10/27 01:41:06;;;;;;;26.60;17.05;;;9.10;99.90;;;;;;5016259;28;20468;-68
2023/10/27 01:43:32;;;;;;;26.63;16.55;;;9.00;99.90;;;;;;5032534;28;20043;-67
2023/10/27 01:45:58;;;;;;;28.63;17.48;;;8.90;99.90;;;;;;5032780;28;20041;-67
2023/10/27 01:48:23;;;;;;;24.77;15.82;;;8.90;99.90;;;;;;5036619;28;20048;-67
2023/10/27 01:50:49;;;;;;;29.80;17.63;;;8.80;99.90;;;;;;5034793;28;20052;-67
2023/10/27 01:53:15;;;;;;;31.08;17.17;;;8.80;99.90;;;;;;5034814;28;20033;-67
2023/10/27 01:55:41;;;;;;;26.73;16.23;;;8.80;99.90;;;;;;5052583;28;20098;-67
2023/10/27 01:58:09;;;;;;;29.83;17.58;;;8.80;99.90;;;;;;5034267;28;20049;-67
2023/10/27 02:00:34;;;;;;;31.33;17.85;;;8.80;99.90;;;;;;5035230;28;20391;-67
2023/10/27 02:03:00;;;;;;;32.20;16.65;;;8.80;99.90;;;;;;5033735;28;20041;-67
2023/10/27 02:05:26;;;;;;;32.97;18.52;;;8.70;99.90;;;;;;5052960;28;20040;-67
2023/10/27 02:07:52;;;;;;;29.77;15.52;;;8.70;99.90;;;;;;5033899;28;20041;-68
2023/10/27 02:10:17;;;;;;;32.67;18.50;;;8.70;99.90;;;;;;5051746;28;20448;-68
2023/10/27 02:12:43;;;;;;;28.00;17.50;;;8.70;99.90;;;;;;5052630;28;20409;-67
2023/10/27 02:15:09;;;;;;;28.90;16.48;;;8.80;99.90;;;;;;5052477;28;20040;-67
2023/10/27 02:17:35;;;;;;;26.88;16.50;;;8.70;99.90;;;;;;5034111;28;20041;-67
2023/10/27 02:20:00;;;;;;;28.50;17.08;;;8.70;99.90;;;;;;5051371;28;20112;-67
2023/10/27 02:22:26;;;;;;;28.67;16.10;;;8.70;99.90;;;;;;5034360;28;20047;-67
2023/10/27 02:24:51;;;;;;;30.00;17.42;;;8.70;99.90;;;;;;5051761;28;20037;-67
2023/10/27 02:27:17;;;;;;;27.45;16.45;;;8.80;99.90;;;;;;5002115;28;20053;-67
2023/10/27 02:29:43;;;;;;;27.05;14.75;;;8.80;99.90;;;;;;5014979;28;20041;-67
2023/10/27 02:32:08;;;;;;;25.67;14.63;;;8.80;99.90;;;;;;5013461;28;20037;-67
2023/10/27 02:34:34;;;;;;;28.23;15.68;;;8.90;99.90;;;;;;5014857;28;20091;-67
2023/10/27 02:37:00;;;;;;;25.83;15.70;;;8.80;99.90;;;;;;5046967;28;20472;-67
2023/10/27 02:39:25;;;;;;;29.17;16.88;;;8.80;99.90;;;;;;5030474;28;20445;-67
2023/10/27 02:41:51;;;;;;;23.63;16.30;;;8.80;99.90;;;;;;5047669;28;20048;-67
2023/10/27 02:44:17;;;;;;;24.88;15.45;;;8.90;99.90;;;;;;5049570;28;20037;-67
2023/10/27 02:46:43;;;;;;;23.08;14.18;;;8.90;99.90;;;;;;5033645;28;20090;-67
2023/10/27 02:49:08;;;;;;;27.20;14.10;;;8.80;99.90;;;;;;5051729;28;20402;-67
2023/10/27 02:51:34;;;;;;;21.75;14.52;;;8.80;99.90;;;;;;5034219;28;20032;-67
2023/10/27 02:54:00;;;;;;;21.85;13.23;;;8.80;99.90;;;;;;5050780;28;20064;-67
2023/10/27 02:56:25;;;;;;;27.13;15.25;;;8.90;99.90;;;;;;5051635;28;20087;-67
2023/10/27 02:58:51;;;;;;;22.40;14.70;;;8.90;99.90;;;;;;5033788;28;20090;-67
2023/10/27 03:01:17;;;;;;;23.67;15.20;;;8.90;99.90;;;;;;5035037;28;20050;-67
2023/10/27 03:03:45;;;;;;;30.92;14.20;;;9.00;99.90;;;;;;5014629;28;20041;-67
2023/10/27 03:06:12;;;;;;;20.92;13.63;;;9.00;99.90;;;;;;5013151;28;20494;-67
2023/10/27 03:08:39;;;;;;;21.48;14.52;;;8.90;99.90;;;;;;5014712;28;20049;-67
2023/10/27 03:11:05;;;;;;;19.42;12.55;;;9.00;99.90;;;;;;4997858;28;20057;-67
2023/10/27 03:13:32;;;;;;;23.08;13.98;;;9.00;99.90;;;;;;5029439;28;20055;-67
2023/10/27 03:16:01;;;;;;;20.92;13.40;;;8.90;99.90;;;;;;5031589;28;20045;-67
2023/10/27 03:18:27;;;;;;;24.95;14.13;;;9.00;99.90;;;;;;5014238;28;20136;-67
2023/10/27 03:21:03;;;;;;;20.92;13.75;;;9.00;99.90;;;;;;4999822;28;20033;-67
2023/10/27 03:23:29;;;;;;;22.77;13.88;;;9.10;99.90;;;;;;5018586;28;20050;-67
2023/10/27 03:25:55;;;;;;;26.30;15.95;;;9.10;99.90;;;;;;5017779;28;20474;-67
2023/10/27 03:28:21;;;;;;;24.92;15.55;;;9.10;99.90;;;;;;5017358;28;20106;-67
2023/10/27 03:30:50;;;;;;;24.25;14.70;;;9.00;99.90;;;;;;5001851;28;20088;-67
2023/10/27 03:33:17;;;;;;;25.92;14.98;;;9.10;99.90;;;;;;5017514;28;20098;-67
2023/10/27 03:35:43;;;;;;;25.75;15.10;;;9.10;99.90;;;;;;5017558;28;20057;-67
2023/10/27 03:38:10;;;;;;;27.10;15.90;;;9.00;99.90;;;;;;5035179;28;20041;-67
2023/10/27 03:40:39;;;;;;;28.58;15.82;;;9.20;99.90;;;;;;5034370;28;20040;-67
2023/10/27 03:43:05;;;;;;;24.90;14.85;;;9.20;99.90;;;;;;5049655;28;20044;-67
2023/10/27 03:45:31;;;;;;;23.98;14.63;;;9.20;99.90;;;;;;5017765;28;20037;-67
2023/10/27 03:47:56;;;;;;;24.33;14.90;;;9.10;99.90;;;;;;5034461;28;20037;-67
2023/10/27 03:50:22;;;;;;;25.20;14.50;;;9.10;99.90;;;;;;5017453;28;20402;-67
2023/10/27 03:52:48;;;;;;;26.35;15.23;;;9.10;99.90;;;;;;5017851;28;20053;-67
2023/10/27 03:55:13;;;;;;;25.95;17.33;;;9.20;99.90;;;;;;5034418;28;20045;-67
2023/10/27 03:57:40;;;;;;;31.13;20.58;;;9.10;99.90;;;;;;5035219;28;20570;-67
2023/10/27 04:00:07;;;;;;;30.13;18.35;;;9.20;99.90;;;;;;5034736;28;20044;-67
2023/10/27 04:02:36;;;;;;;25.80;17.40;;;9.30;99.90;;;;;;5033376;28;20037;-67
2023/10/27 04:05:04;;;;;;;28.63;16.80;;;9.20;99.90;;;;;;5020139;28;20047;-67
2023/10/27 04:07:29;;;;;;;28.08;16.83;;;9.20;99.90;;;;;;5055278;28;20437;-67
2023/10/27 04:09:55;;;;;;;31.23;17.50;;;9.30;99.90;;;;;;5052952;28;20047;-67
2023/10/27 04:12:21;;;;;;;29.27;17.80;;;9.10;99.90;;;;;;5023925;28;20522;-67
2023/10/27 04:14:48;;;;;;;27.00;16.65;;;9.30;99.90;;;;;;5017284;28;20499;-67
2023/10/27 04:17:14;;;;;;;29.02;17.27;;;9.10;99.90;;;;;;5015942;28;20080;-67
2023/10/27 04:19:40;;;;;;;29.50;18.10;;;9.20;99.90;;;;;;5034936;28;20467;-67
2023/10/27 04:22:06;;;;;;;29.33;16.83;;;9.30;99.90;;;;;;5016926;28;20056;-67
2023/10/27 04:24:31;;;;;;;25.17;16.02;;;9.40;99.90;;;;;;5000055;28;20482;-68
2023/10/27 04:26:57;;;;;;;27.67;16.05;;;9.30;99.90;;;;;;5034221;28;20080;-68
2023/10/27 04:29:22;;;;;;;25.63;16.02;;;9.30;99.90;;;;;;5017342;28;20046;-67
2023/10/27 04:31:48;;;;;;;29.15;17.17;;;9.40;99.90;;;;;;5022447;28;20503;-67
2023/10/27 04:34:14;;;;;;;24.08;14.18;;;9.40;99.90;;;;;;5029686;28;20088;-67
2023/10/27 04:36:40;;;;;;;25.98;15.05;;;9.40;99.90;;;;;;4997247;28;20084;-67
2023/10/27 04:39:06;;;;;;;24.67;14.48;;;9.30;99.90;;;;;;4995995;28;20073;-67
2023/10/27 04:41:33;;;;;;;24.63;15.43;;;9.30;99.90;;;;;;4997389;28;20497;-67
2023/10/27 04:43:58;;;;;;;22.90;14.77;;;9.30;99.90;;;;;;4996721;28;20042;-67
2023/10/27 04:46:24;;;;;;;25.10;15.18;;;9.40;99.90;;;;;;5014033;28;20053;-67
2023/10/27 04:48:50;;;;;;;27.65;18.48;;;9.30;99.90;;;;;;5014834;28;20040;-67
2023/10/27 04:51:16;;;;;;;24.80;15.45;;;9.30;99.90;;;;;;4979935;28;20090;-67
2023/10/27 04:53:42;;;;;;;58.30;38.92;;;9.40;99.90;;;;;;5014447;28;20041;-67
2023/10/27 04:56:08;;;;;;;31.23;19.30;;;9.30;99.90;;;;;;5014298;28;20368;-67
2023/10/27 04:58:33;;;;;;;28.98;17.55;;;9.30;99.90;;;;;;5028966;28;20053;-67
2023/10/27 05:00:59;;;;;;;70.05;44.70;;;9.40;99.90;;;;;;5029058;28;20046;-67
2023/10/27 05:03:25;;;;;;;35.10;21.17;;;9.40;99.90;;;;;;4981009;28;20038;-67
2023/10/27 05:05:51;;;;;;;34.58;22.15;;;9.40;99.90;;;;;;4979995;28;20484;-67
2023/10/27 05:08:16;;;;;;;28.77;18.50;;;9.40;99.90;;;;;;4980474;28;20132;-67
2023/10/27 05:10:42;;;;;;;25.20;15.85;;;9.40;99.90;;;;;;5014252;28;20121;-67
2023/10/27 05:13:08;;;;;;;37.15;23.98;;;9.30;99.90;;;;;;5031987;28;20588;-67
2023/10/27 05:15:34;;;;;;;27.50;17.67;;;9.40;99.90;;;;;;5016140;28;20049;-67
2023/10/27 05:18:04;;;;;;;26.92;16.80;;;9.30;99.90;;;;;;5015528;28;20052;-67
2023/10/27 05:20:37;;;;;;;30.42;20.33;;;9.30;99.90;;;;;;5015395;28;20502;-67
2023/10/27 05:23:03;;;;;;;30.25;24.80;;;9.50;99.90;;;;;;5015616;28;20042;-67
2023/10/27 05:25:29;;;;;;;25.48;17.42;;;9.40;99.90;;;;;;5016448;28;20038;-67
2023/10/27 05:27:54;;;;;;;23.75;15.20;;;9.50;99.90;;;;;;5014874;28;20395;-67
2023/10/27 05:30:20;;;;;;;22.08;14.50;;;9.30;99.90;;;;;;5035247;28;20050;-67
2023/10/27 05:32:46;;;;;;;17.92;11.82;;;9.30;99.90;;;;;;5029412;28;20048;-67
2023/10/27 05:35:11;;;;;;;21.92;15.73;;;9.40;99.90;;;;;;5025905;28;20128;-67
2023/10/27 05:37:37;;;;;;;20.10;14.38;;;9.40;99.90;;;;;;5035853;28;20402;-67
2023/10/27 05:40:03;;;;;;;16.55;12.57;;;9.30;99.90;;;;;;5018949;28;20052;-67
2023/10/27 05:42:30;;;;;;;26.42;15.20;;;9.40;99.90;;;;;;5052256;28;20506;-67
2023/10/27 05:44:56;;;;;;;16.65;10.55;;;9.40;99.90;;;;;;5052636;28;20412;-67
2023/10/27 05:47:21;;;;;;;21.48;14.82;;;9.50;99.90;;;;;;5051201;28;20045;-67
2023/10/27 05:49:47;;;;;;;18.10;12.38;;;9.50;99.90;;;;;;5017044;28;20132;-67
2023/10/27 05:52:14;;;;;;;20.10;13.90;;;9.50;99.90;;;;;;5023338;28;20480;-67
2023/10/27 05:54:40;;;;;;;17.90;12.85;;;9.40;99.90;;;;;;5038327;28;20076;-67
2023/10/27 05:57:08;;;;;;;23.88;16.15;;;9.50;99.90;;;;;;5019683;28;20069;-67
2023/10/27 05:59:34;;;;;;;16.00;11.05;;;9.50;99.90;;;;;;5051639;28;20417;-67
2023/10/27 06:02:00;;;;;;;17.75;11.15;;;9.40;99.90;;;;;;5033769;28;20504;-67
2023/10/27 06:04:27;;;;;;;18.98;13.25;;;9.50;99.90;;;;;;5034869;28;20037;-67
2023/10/27 06:06:53;;;;;;;17.85;11.55;;;9.50;99.90;;;;;;5034438;28;20045;-67
2023/10/27 06:09:18;;;;;;;19.48;13.05;;;9.50;99.90;;;;;;5018430;28;20052;-67
2023/10/27 06:11:44;;;;;;;15.32;10.10;;;9.40;99.90;;;;;;5012562;28;20132;-67
2023/10/27 06:14:10;;;;;;;16.73;10.48;;;9.50;99.90;;;;;;5030165;28;20053;-67
2023/10/27 06:16:36;;;;;;;18.70;11.88;;;9.40;99.90;;;;;;5029970;28;20756;-67
2023/10/27 06:19:03;;;;;;;17.88;10.82;;;9.40;99.90;;;;;;5030187;28;20052;-67
2023/10/27 06:21:29;;;;;;;16.77;11.45;;;9.30;99.90;;;;;;5013724;28;20045;-67
2023/10/27 06:23:55;;;;;;;18.85;12.02;;;9.50;99.90;;;;;;5044988;28;20099;-67
2023/10/27 06:26:20;;;;;;;17.33;10.60;;;9.50;99.90;;;;;;5032896;28;20049;-67
2023/10/27 06:28:46;;;;;;;18.23;12.20;;;9.50;99.90;;;;;;5032547;28;20114;-66
2023/10/27 06:31:12;;;;;;;22.85;15.10;;;9.60;99.90;;;;;;5025471;28;21111;-67
2023/10/27 06:33:37;;;;;;;21.13;14.82;;;9.40;99.90;;;;;;5037175;28;20041;-67
2023/10/27 06:36:04;;;;;;;23.05;15.10;;;9.40;99.90;;;;;;5011833;28;20042;-67
2023/10/27 06:38:30;;;;;;;21.40;14.25;;;9.40;99.90;;;;;;5030463;28;20049;-67
2023/10/27 06:40:55;;;;;;;21.17;14.98;;;9.50;99.90;;;;;;5022193;28;20038;-67
2023/10/27 06:43:21;;;;;;;21.48;15.25;;;9.60;99.90;;;;;;5012275;28;20095;-67
2023/10/27 06:45:47;;;;;;;20.95;13.15;;;9.50;99.90;;;;;;5011471;28;20076;-67
2023/10/27 06:48:13;;;;;;;19.52;12.70;;;9.50;99.90;;;;;;5008098;28;20081;-67
2023/10/27 06:50:40;;;;;;;24.25;14.82;;;9.50;99.90;;;;;;5002635;28;20045;-67
2023/10/27 06:53:06;;;;;;;20.50;13.15;;;9.40;99.90;;;;;;5028890;28;20041;-67
2023/10/27 06:55:32;;;;;;;22.30;13.38;;;9.50;99.90;;;;;;5045246;28;20041;-67
2023/10/27 06:57:58;;;;;;;20.63;13.55;;;9.50;99.90;;;;;;5017221;28;20048;-67
2023/10/27 07:00:23;;;;;;;23.63;13.75;;;9.40;99.90;;;;;;5048230;28;20095;-65
2023/10/27 07:02:49;;;;;;;18.70;11.63;;;9.50;99.90;;;;;;5030397;28;20037;-68
2023/10/27 07:05:16;;;;;;;21.55;14.07;;;9.40;99.90;;;;;;5046136;28;20418;-69
2023/10/27 07:07:43;;;;;;;19.45;11.73;;;9.40;99.90;;;;;;5017476;28;20048;-68
2023/10/27 07:10:09;;;;;;;18.73;12.10;;;9.50;99.90;;;;;;5030404;28;20199;-69
2023/10/27 07:12:35;;;;;;;22.27;13.13;;;9.60;99.90;;;;;;5030432;28;20052;-68
2023/10/27 07:15:01;;;;;;;19.27;12.38;;;9.50;99.90;;;;;;5025130;28;20052;-68
2023/10/27 07:17:26;;;;;;;54.08;28.55;;;9.60;99.90;;;;;;5001348;28;20041;-69
2023/10/27 07:19:52;;;;;;;52.40;27.83;;;9.60;99.90;;;;;;5030230;28;20041;-69
2023/10/27 07:22:19;;;;;;;41.28;25.00;;;9.60;99.90;;;;;;5031351;28;20509;-68
2023/10/27 07:24:48;;;;;;;28.95;18.25;;;9.70;99.90;;;;;;5028918;28;20044;-68
2023/10/27 07:27:14;;;;;;;21.40;13.43;;;9.60;99.90;;;;;;5011174;28;20041;-69
2023/10/27 07:29:40;;;;;;;22.98;17.00;;;9.60;99.90;;;;;;5031287;28;20055;-68
2023/10/27 07:32:06;;;;;;;21.65;14.07;;;9.60;99.90;;;;;;5028407;28;20496;-68
2023/10/27 07:34:31;;;;;;;25.35;17.05;;;9.60;99.90;;;;;;5013764;28;20045;-69
2023/10/27 07:36:57;;;;;;;23.90;15.57;;;9.70;99.90;;;;;;5047909;28;20045;-69
2023/10/27 07:39:23;;;;;;;23.88;17.05;;;9.60;99.90;;;;;;5029027;28;20042;-68
2023/10/27 07:41:52;;;;;;;23.10;14.77;;;9.70;99.90;;;;;;5026548;28;20041;-69
2023/10/27 07:44:17;;;;;;;21.65;14.73;;;9.70;99.90;;;;;;5030352;28;20049;-69
2023/10/27 07:46:43;;;;;;;24.88;16.23;;;9.70;99.90;;;;;;5030578;28;20055;-69
2023/10/27 07:49:09;;;;;;;29.25;18.35;;;9.90;99.90;;;;;;5029153;28;20037;-70
2023/10/27 07:51:35;;;;;;;24.48;15.80;;;9.80;99.90;;;;;;5030356;28;20095;-69
2023/10/27 07:54:00;;;;;;;20.30;13.48;;;9.90;99.90;;;;;;5029539;28;20049;-68
2023/10/27 07:56:26;;;;;;;23.55;15.60;;;9.80;99.90;;;;;;5047322;28;20532;-68
2023/10/27 07:58:52;;;;;;;23.58;15.63;;;9.90;99.90;;;;;;5029613;28;20441;-68
2023/10/27 08:01:18;;;;;;;19.00;13.25;;;9.90;99.90;;;;;;5029930;28;20041;-69
2023/10/27 08:03:46;;;;;;;27.25;16.17;;;10.00;99.90;;;;;;5013460;28;20512;-68
2023/10/27 08:06:12;;;;;;;21.73;14.30;;;9.90;99.90;;;;;;5013733;28;20033;-68
2023/10/27 08:08:37;;;;;;;20.33;13.65;;;10.00;99.90;;;;;;5032530;28;20105;-68
2023/10/27 08:11:04;;;;;;;20.83;12.95;;;10.00;99.90;;;;;;5032599;28;20052;-68
2023/10/27 08:13:31;;;;;;;21.48;14.23;;;10.10;99.90;;;;;;5032833;28;20131;-68
2023/10/27 08:15:58;;;;;;;21.50;12.50;;;10.00;99.90;;;;;;5020006;28;20075;-68
2023/10/27 08:18:23;;;;;;;28.27;17.52;;;10.10;99.90;;;;;;5017732;28;20041;-68
2023/10/27 08:20:50;;;;;;;30.15;18.08;;;10.00;99.90;;;;;;5025924;28;20037;-69
2023/10/27 08:23:15;;;;;;;19.88;12.95;;;10.20;99.90;;;;;;4996674;28;20116;-69
2023/10/27 08:25:41;;;;;;;27.15;17.23;;;10.10;99.90;;;;;;5032039;28;20128;-68
2023/10/27 08:28:08;;;;;;;27.10;17.00;;;10.20;99.90;;;;;;5018023;28;20483;-69
2023/10/27 08:30:34;;;;;;;30.88;19.95;;;10.10;99.90;;;;;;5027010;28;20037;-69
2023/10/27 08:32:59;;;;;;;26.88;18.45;;;10.10;99.90;;;;;;5029910;28;20413;-69
2023/10/27 08:35:25;;;;;;;33.53;23.40;;;10.10;99.90;;;;;;5051717;28;20095;-65
2023/10/27 08:37:50;;;;;;;23.58;16.70;;;10.20;99.90;;;;;;5033489;28;20480;-69
2023/10/27 08:40:17;;;;;;;23.35;17.13;;;10.20;99.90;;;;;;5033357;28;20569;-69
2023/10/27 08:42:45;;;;;;;16.48;10.57;;;10.30;99.90;;;;;;5034364;28;20055;-68
2023/10/27 08:45:11;;;;;;;17.50;10.50;;;10.20;99.90;;;;;;5032431;28;20040;-68
2023/10/27 08:47:37;;;;;;;15.68;10.80;;;10.30;99.90;;;;;;5017638;28;20045;-69
2023/10/27 08:50:04;;;;;;;16.40;11.18;;;10.20;99.90;;;;;;5018361;28;20042;-68
2023/10/27 08:52:33;;;;;;;16.00;10.82;;;10.30;99.90;;;;;;5046824;28;20108;-67
2023/10/27 08:55:06;;;;;;;15.93;10.40;;;10.30;99.90;;;;;;5030484;28;20110;-67
2023/10/27 08:57:32;;;;;;;15.23;9.30;;;10.20;99.90;;;;;;5049789;28;20489;-67
2023/10/27 08:59:58;;;;;;;16.73;10.38;;;10.30;99.90;;;;;;5033581;28;20044;-69
2023/10/27 09:02:35;;;;;;;16.25;9.90;;;10.30;99.90;;;;;;5034240;28;20029;-69
2023/10/27 09:05:04;;;;;;;15.98;9.88;;;10.30;99.90;;;;;;5050569;28;20045;-69
2023/10/27 09:07:36;;;;;;;13.68;8.50;;;10.20;99.90;;;;;;5034182;28;20052;-69
2023/10/27 09:10:07;;;;;;;14.45;9.38;;;10.30;99.90;;;;;;5016798;28;20048;-71
2023/10/27 09:12:37;;;;;;;13.98;9.07;;;10.30;99.90;;;;;;5018559;28;20057;-71
2023/10/27 09:15:07;;;;;;;16.02;9.32;;;10.40;99.90;;;;;;4978531;28;20054;-71
2023/10/27 09:17:56;;;;;;;15.93;9.18;;;10.40;99.90;;;;;;5010561;28;20128;-68
2023/10/27 09:20:26;;;;;;;12.77;8.57;;;10.50;99.90;;;;;;5021819;28;20046;-71
2023/10/27 09:23:04;;;;;;;13.65;8.18;;;10.40;99.90;;;;;;5015268;28;20203;-71
2023/10/27 09:25:34;;;;;;;12.50;7.53;;;10.40;99.90;;;;;;5013032;28;20049;-70
2023/10/27 09:28:07;;;;;;;13.63;8.43;;;10.50;99.90;;;;;;5015824;28;20072;-69
2023/10/27 09:30:41;;;;;;;13.50;8.68;;;10.50;99.90;;;;;;5009359;28;20053;-72
2023/10/27 09:33:23;;;;;;;13.07;9.15;;;10.50;99.90;;;;;;5014989;28;20053;-72
2023/10/27 09:35:49;;;;;;;22.00;14.20;;;10.60;99.90;;;;;;5015968;28;20068;-71
2023/10/27 09:38:16;;;;;;;15.48;11.52;;;10.50;99.90;;;;;;5014942;28;20049;-71
2023/10/27 09:40:43;;;;;;;14.70;8.30;;;10.50;99.90;;;;;;5032919;28;20482;-71
2023/10/27 09:43:20;;;;;;;16.63;10.90;;;10.70;99.90;;;;;;5015527;28;20402;-72
2023/10/27 09:45:55;;;;;;;13.23;10.00;;;10.70;99.90;;;;;;5033556;28;20052;-72
2023/10/27 09:48:29;;;;;;;12.65;8.55;;;10.70;99.90;;;;;;4998821;28;20502;-72
2023/10/27 09:51:12;;;;;;;12.80;9.83;;;10.60;99.90;;;;;;5032830;28;20060;-72
2023/10/27 09:53:39;;;;;;;13.57;8.90;;;10.80;99.90;;;;;;5015459;28;20048;-72
2023/10/27 09:56:06;;;;;;;13.60;8.95;;;10.70;99.90;;;;;;5032401;28;20595;-72
2023/10/27 09:58:34;;;;;;;17.45;10.57;;;10.70;99.90;;;;;;5015367;28;20056;-72
2023/10/27 10:01:01;;;;;;;27.90;17.73;;;10.70;99.90;;;;;;5014013;28;20049;-72
2023/10/27 10:03:27;;;;;;;18.20;10.18;;;10.70;99.90;;;;;;5015333;28;20049;-71
2023/10/27 10:06:13;;;;;;;13.85;9.00;;;10.70;99.90;;;;;;5014736;28;20400;-72
2023/10/27 10:08:40;;;;;;;13.57;8.57;;;10.80;99.90;;;;;;5014587;28;20045;-72
2023/10/27 10:11:17;;;;;;;13.85;8.55;;;10.90;99.90;;;;;;5017111;28;20037;-72
2023/10/27 10:13:44;;;;;;;15.35;9.00;;;10.90;99.90;;;;;;5034990;28;20049;-72
2023/10/27 10:16:11;;;;;;;14.43;9.15;;;10.90;99.90;;;;;;5051489;28;20041;-71
2023/10/27 10:18:37;;;;;;;16.02;10.25;;;10.90;99.90;;;;;;5034888;28;20609;-71
2023/10/27 10:21:03;;;;;;;22.13;13.65;;;10.90;99.90;;;;;;5034462;28;20042;-72
2023/10/27 10:23:37;;;;;;;14.73;8.93;;;10.90;99.90;;;;;;5033926;28;20044;-72
2023/10/27 10:26:04;;;;;;;20.95;16.05;;;11.00;99.90;;;;;;5034308;28;20047;-72
2023/10/27 10:28:34;;;;;;;18.55;14.48;;;10.90;99.90;;;;;;5034943;28;20040;-71
2023/10/27 10:31:10;;;;;;;14.80;10.55;;;11.10;99.90;;;;;;5033242;28;20053;-71
2023/10/27 10:33:45;;;;;;;13.30;9.50;;;11.10;99.90;;;;;;5034560;28;20564;-71
2023/10/27 10:36:10;;;;;;;;;;;11.10;99.90;;;;;;5033446;28;20505;-71
2023/10/27 10:38:37;;;;;;;14.10;8.38;;;11.10;99.90;;;;;;5034653;28;20055;-71
2023/10/27 10:41:03;;;;;;;12.80;8.32;;;11.10;99.90;;;;;;5034209;28;20048;-72
2023/10/27 10:43:30;;;;;;;16.10;10.85;;;11.10;99.90;;;;;;5034047;28;20037;-72
2023/10/27 10:46:00;;;;;;;16.13;10.90;;;11.10;99.90;;;;;;5051855;28;20037;-71
2023/10/27 10:48:32;;;;;;;17.88;12.27;;;11.20;99.90;;;;;;5034212;28;20041;-72
2023/10/27 10:51:04;;;;;;;15.00;10.65;;;11.10;99.90;;;;;;5033266;28;20367;-71
2023/10/27 10:53:30;;;;;;;13.43;8.48;;;11.20;99.90;;;;;;5034642;28;20045;-71
2023/10/27 10:56:01;;;;;;;12.95;9.13;;;11.10;99.90;;;;;;5033821;28;20122;-71
2023/10/27 10:58:33;;;;;;;15.65;10.93;;;11.10;99.90;;;;;;5017159;28;20041;-71
2023/10/27 11:00:59;;;;;;;14.07;8.45;;;11.20;99.90;;;;;;5033963;28;20482;-71
2023/10/27 11:03:31;;;;;;;16.67;10.65;;;11.20;99.90;;;;;;5034248;28;20048;-71
2023/10/27 11:06:02;;;;;;;16.02;9.98;;;11.20;99.90;;;;;;5032808;28;20487;-71
2023/10/27 11:08:37;;;;;;;16.17;11.80;;;11.20;99.90;;;;;;5034288;28;20091;-71
2023/10/27 11:11:14;;;;;;;16.50;11.73;;;11.30;99.90;;;;;;5033413;28;20071;-71
2023/10/27 11:13:41;;;;;;;29.25;20.17;;;11.20;99.90;;;;;;5034338;28;20441;-71
2023/10/27 11:16:17;;;;;;;28.92;22.83;;;11.30;99.90;;;;;;5033694;28;20044;-71
2023/10/27 11:18:44;;;;;;;14.82;10.98;;;11.30;99.90;;;;;;5038280;28;20043;-71
2023/10/27 11:21:17;;;;;;;13.98;10.43;;;11.30;99.90;;;;;;5016847;28;20048;-71
2023/10/27 11:23:44;;;;;;;13.52;8.48;;;11.30;99.90;;;;;;5008978;28;20045;-68
2023/10/27 11:26:10;;;;;;;14.75;10.05;;;11.30;99.90;;;;;;5026603;28;20037;-68
2023/10/27 11:28:43;;;;;;;12.95;8.00;;;11.30;99.90;;;;;;5020936;28;20132;-68
2023/10/27 11:31:29;;;;;;;14.93;8.85;;;11.30;99.90;;;;;;5032448;28;20122;-68
2023/10/27 11:34:00;;;;;;;13.70;8.68;;;11.20;99.90;;;;;;5035939;28;20192;-68
2023/10/27 11:36:26;;;;;;;14.95;9.05;;;11.20;99.90;;;;;;5033798;28;20047;-67
2023/10/27 11:38:51;;;;;;;15.05;9.25;;;11.20;99.90;;;;;;5014171;28;20053;-68
2023/10/27 11:41:19;;;;;;;12.93;8.93;;;11.20;99.90;;;;;;5033675;28;20045;-68
2023/10/27 11:43:45;;;;;;;15.27;9.77;;;11.20;99.90;;;;;;5037157;28;20477;-68
2023/10/27 11:46:16;;;;;;;13.05;8.40;;;11.20;99.90;;;;;;5027942;28;20490;-68
2023/10/27 11:48:42;;;;;;;13.68;8.60;;;11.20;99.90;;;;;;5022870;28;20129;-68
2023/10/27 11:51:09;;;;;;;13.10;9.63;;;11.10;99.90;;;;;;5042612;28;20069;-68
2023/10/27 11:53:40;;;;;;;13.70;8.93;;;11.10;99.90;;;;;;5029707;28;20474;-68
2023/10/27 11:56:06;;;;;;;14.20;9.82;;;11.20;99.90;;;;;;5036399;28;20083;-68
2023/10/27 11:58:31;;;;;;;14.82;9.90;;;11.20;99.90;;;;;;5017557;28;20470;-68
2023/10/27 12:00:57;;;;;;;15.90;10.70;;;11.20;99.90;;;;;;5001327;28;20099;-68
2023/10/27 12:03:23;;;;;;;14.77;10.00;;;11.10;99.90;;;;;;5018139;28;20080;-68
2023/10/27 12:05:49;;;;;;;14.38;9.10;;;11.10;99.90;;;;;;5024162;28;20474;-67
2023/10/27 12:08:14;;;;;;;14.82;8.85;;;11.20;99.90;;;;;;5022727;28;20493;-68
2023/10/27 12:10:40;;;;;;;15.93;9.27;;;11.20;99.90;;;;;;5023496;28;20057;-68
2023/10/27 12:13:08;;;;;;;14.73;9.05;;;11.20;99.90;;;;;;5032985;28;20053;-68
2023/10/27 12:15:34;;;;;;;14.25;9.95;;;11.10;99.90;;;;;;5009429;28;20049;-67
2023/10/27 12:18:03;;;;;;;14.88;9.05;;;11.20;99.90;;;;;;5013526;28;20046;-67
2023/10/27 12:20:30;;;;;;;15.00;9.68;;;11.10;99.90;;;;;;5021515;28;20072;-68
2023/10/27 12:22:56;;;;;;;13.70;8.43;;;11.10;99.90;;;;;;5033389;28;20501;-68
2023/10/27 12:25:21;;;;;;;12.30;8.65;;;11.20;99.90;;;;;;5027822;28;20152;-68
2023/10/27 12:27:47;;;;;;;15.77;9.40;;;11.20;99.90;;;;;;5021703;28;20091;-67
2023/10/27 12:30:14;;;;;;;17.33;9.55;;;11.20;99.90;;;;;;5015547;28;20106;-67
2023/10/27 12:32:40;;;;;;;15.18;9.45;;;11.20;99.90;;;;;;5023808;28;20078;-67
2023/10/27 12:35:06;;;;;;;16.17;9.90;;;11.20;99.90;;;;;;4997592;28;20045;-67